sensor_id;sensor_type;location;lat;lon;timestamp;P1;durP1;ratioP1;P2;durP2;ratioP2
10126;SDS011;13080;42.608;23.362;2023-04-25T00:00:55;10.85;;;7.70;;
10126;SDS011;13080;42.608;23.362;2023-04-25T00:03:22;8.98;;;6.82;;
10126;SDS011;13080;42.608;23.362;2023-04-25T00:05:50;10.15;;;7.38;;
10126;SDS011;13080;42.608;23.362;2023-04-25T00:08:18;14.40;;;9.10;;
10126;SDS011;13080;42.608;23.362;2023-04-25T00:10:45;8.40;;;6.60;;
10126;SDS011;13080;42.608;23.362;2023-04-25T00:13:12;11.60;;;7.32;;
10126;SDS011;13080;42.608;23.362;2023-04-25T00:15:39;12.18;;;6.93;;
10126;SDS011;13080;42.608;23.362;2023-04-25T00:18:06;10.15;;;6.47;;
10126;SDS011;13080;42.608;23.362;2023-04-25T00:20:34;11.38;;;6.82;;
10126;SDS011;13080;42.608;23.362;2023-04-25T00:23:01;10.98;;;7.57;;
10126;SDS011;13080;42.608;23.362;2023-04-25T00:25:29;11.25;;;7.50;;
10126;SDS011;13080;42.608;23.362;2023-04-25T00:27:56;10.80;;;7.95;;
10126;SDS011;13080;42.608;23.362;2023-04-25T00:30:23;8.18;;;5.32;;
10126;SDS011;13080;42.608;23.362;2023-04-25T00:32:50;11.60;;;6.63;;
10126;SDS011;13080;42.608;23.362;2023-04-25T00:35:16;7.95;;;5.95;;
10126;SDS011;13080;42.608;23.362;2023-04-25T00:37:43;10.18;;;6.30;;
10126;SDS011;13080;42.608;23.362;2023-04-25T00:40:10;10.82;;;7.32;;
10126;SDS011;13080;42.608;23.362;2023-04-25T00:42:38;9.95;;;7.65;;
10126;SDS011;13080;42.608;23.362;2023-04-25T00:45:07;9.32;;;7.22;;
10126;SDS011;13080;42.608;23.362;2023-04-25T00:47:38;8.10;;;6.38;;
10126;SDS011;13080;42.608;23.362;2023-04-25T00:50:07;8.88;;;6.57;;
10126;SDS011;13080;42.608;23.362;2023-04-25T00:52:35;9.30;;;6.30;;
10126;SDS011;13080;42.608;23.362;2023-04-25T00:55:02;7.97;;;5.57;;
10126;SDS011;13080;42.608;23.362;2023-04-25T00:57:29;7.78;;;5.47;;
10126;SDS011;13080;42.608;23.362;2023-04-25T00:59:58;6.03;;;4.57;;
10126;SDS011;13080;42.608;23.362;2023-04-25T01:02:25;8.73;;;5.10;;
10126;SDS011;13080;42.608;23.362;2023-04-25T01:04:53;7.25;;;5.20;;
10126;SDS011;13080;42.608;23.362;2023-04-25T01:07:20;7.70;;;5.13;;
10126;SDS011;13080;42.608;23.362;2023-04-25T01:09:46;7.55;;;5.47;;
10126;SDS011;13080;42.608;23.362;2023-04-25T01:12:13;6.78;;;4.45;;
10126;SDS011;13080;42.608;23.362;2023-04-25T01:14:40;7.05;;;4.47;;
10126;SDS011;13080;42.608;23.362;2023-04-25T01:17:08;6.07;;;4.22;;
10126;SDS011;13080;42.608;23.362;2023-04-25T01:19:35;7.82;;;4.40;;
10126;SDS011;13080;42.608;23.362;2023-04-25T01:22:04;7.28;;;3.60;;
10126;SDS011;13080;42.608;23.362;2023-04-25T01:24:31;5.10;;;4.03;;
10126;SDS011;13080;42.608;23.362;2023-04-25T01:26:58;6.22;;;4.25;;
10126;SDS011;13080;42.608;23.362;2023-04-25T01:29:26;7.28;;;3.92;;
10126;SDS011;13080;42.608;23.362;2023-04-25T01:31:53;6.28;;;4.22;;
10126;SDS011;13080;42.608;23.362;2023-04-25T01:34:20;5.10;;;3.55;;
10126;SDS011;13080;42.608;23.362;2023-04-25T01:36:48;4.93;;;3.60;;
10126;SDS011;13080;42.608;23.362;2023-04-25T01:39:17;5.22;;;3.58;;
10126;SDS011;13080;42.608;23.362;2023-04-25T01:41:45;5.25;;;3.40;;
10126;SDS011;13080;42.608;23.362;2023-04-25T01:44:12;4.97;;;3.53;;
10126;SDS011;13080;42.608;23.362;2023-04-25T01:46:39;3.95;;;3.00;;
10126;SDS011;13080;42.608;23.362;2023-04-25T01:49:06;5.03;;;3.20;;
10126;SDS011;13080;42.608;23.362;2023-04-25T01:51:33;6.38;;;3.72;;
10126;SDS011;13080;42.608;23.362;2023-04-25T01:54:00;5.05;;;3.00;;
10126;SDS011;13080;42.608;23.362;2023-04-25T01:56:31;4.43;;;3.13;;
10126;SDS011;13080;42.608;23.362;2023-04-25T01:58:58;4.18;;;2.80;;
10126;SDS011;13080;42.608;23.362;2023-04-25T02:01:25;6.10;;;4.10;;
10126;SDS011;13080;42.608;23.362;2023-04-25T02:03:51;9.65;;;4.38;;
10126;SDS011;13080;42.608;23.362;2023-04-25T02:06:18;8.77;;;5.65;;
10126;SDS011;13080;42.608;23.362;2023-04-25T02:08:45;11.25;;;5.85;;
10126;SDS011;13080;42.608;23.362;2023-04-25T02:11:11;10.02;;;6.78;;
10126;SDS011;13080;42.608;23.362;2023-04-25T02:13:39;12.40;;;8.20;;
10126;SDS011;13080;42.608;23.362;2023-04-25T02:16:06;13.13;;;7.90;;
10126;SDS011;13080;42.608;23.362;2023-04-25T02:18:33;13.77;;;8.25;;
10126;SDS011;13080;42.608;23.362;2023-04-25T02:21:02;14.93;;;8.20;;
10126;SDS011;13080;42.608;23.362;2023-04-25T02:23:29;14.70;;;8.75;;
10126;SDS011;13080;42.608;23.362;2023-04-25T02:25:56;13.80;;;8.20;;
10126;SDS011;13080;42.608;23.362;2023-04-25T02:28:23;13.43;;;8.20;;
10126;SDS011;13080;42.608;23.362;2023-04-25T02:30:52;13.05;;;7.88;;
10126;SDS011;13080;42.608;23.362;2023-04-25T02:33:19;13.88;;;8.02;;
10126;SDS011;13080;42.608;23.362;2023-04-25T02:35:46;13.52;;;8.77;;
10126;SDS011;13080;42.608;23.362;2023-04-25T02:38:13;17.10;;;10.32;;
10126;SDS011;13080;42.608;23.362;2023-04-25T02:40:39;15.65;;;9.18;;
10126;SDS011;13080;42.608;23.362;2023-04-25T02:43:06;21.55;;;12.25;;
10126;SDS011;13080;42.608;23.362;2023-04-25T02:45:33;16.65;;;10.75;;
10126;SDS011;13080;42.608;23.362;2023-04-25T02:48:01;16.13;;;9.98;;
10126;SDS011;13080;42.608;23.362;2023-04-25T02:50:28;20.42;;;11.55;;
10126;SDS011;13080;42.608;23.362;2023-04-25T02:52:55;16.20;;;9.75;;
10126;SDS011;13080;42.608;23.362;2023-04-25T02:55:22;16.27;;;10.18;;
10126;SDS011;13080;42.608;23.362;2023-04-25T02:57:48;18.85;;;11.52;;
10126;SDS011;13080;42.608;23.362;2023-04-25T03:00:15;20.23;;;12.10;;
10126;SDS011;13080;42.608;23.362;2023-04-25T03:02:42;20.95;;;12.63;;
10126;SDS011;13080;42.608;23.362;2023-04-25T03:05:10;22.13;;;14.30;;
10126;SDS011;13080;42.608;23.362;2023-04-25T03:07:37;26.17;;;15.13;;
10126;SDS011;13080;42.608;23.362;2023-04-25T03:10:05;21.13;;;14.15;;
10126;SDS011;13080;42.608;23.362;2023-04-25T03:12:32;23.52;;;13.45;;
10126;SDS011;13080;42.608;23.362;2023-04-25T03:14:59;25.17;;;13.85;;
10126;SDS011;13080;42.608;23.362;2023-04-25T03:17:26;20.17;;;13.25;;
10126;SDS011;13080;42.608;23.362;2023-04-25T03:19:53;20.05;;;12.15;;
10126;SDS011;13080;42.608;23.362;2023-04-25T03:22:21;16.75;;;11.27;;
10126;SDS011;13080;42.608;23.362;2023-04-25T03:24:48;18.17;;;12.15;;
10126;SDS011;13080;42.608;23.362;2023-04-25T03:27:15;13.98;;;8.57;;
10126;SDS011;13080;42.608;23.362;2023-04-25T03:29:42;15.18;;;9.50;;
10126;SDS011;13080;42.608;23.362;2023-04-25T03:32:09;18.92;;;11.68;;
10126;SDS011;13080;42.608;23.362;2023-04-25T03:34:36;17.88;;;13.02;;
10126;SDS011;13080;42.608;23.362;2023-04-25T03:37:02;21.90;;;10.82;;
10126;SDS011;13080;42.608;23.362;2023-04-25T03:39:30;12.73;;;8.32;;
10126;SDS011;13080;42.608;23.362;2023-04-25T03:41:57;15.27;;;9.35;;
10126;SDS011;13080;42.608;23.362;2023-04-25T03:44:24;17.67;;;12.00;;
10126;SDS011;13080;42.608;23.362;2023-04-25T03:46:51;17.67;;;13.23;;
10126;SDS011;13080;42.608;23.362;2023-04-25T03:49:17;10.90;;;7.55;;
10126;SDS011;13080;42.608;23.362;2023-04-25T03:51:44;13.07;;;9.35;;
10126;SDS011;13080;42.608;23.362;2023-04-25T03:54:11;8.60;;;6.28;;
10126;SDS011;13080;42.608;23.362;2023-04-25T03:56:39;7.05;;;6.07;;
10126;SDS011;13080;42.608;23.362;2023-04-25T03:59:05;11.88;;;10.60;;
10126;SDS011;13080;42.608;23.362;2023-04-25T04:01:32;6.10;;;4.78;;
10126;SDS011;13080;42.608;23.362;2023-04-25T04:04:00;7.18;;;5.72;;
10126;SDS011;13080;42.608;23.362;2023-04-25T04:06:27;7.38;;;5.55;;
10126;SDS011;13080;42.608;23.362;2023-04-25T04:08:54;6.20;;;4.50;;
10126;SDS011;13080;42.608;23.362;2023-04-25T04:11:21;5.80;;;5.00;;
10126;SDS011;13080;42.608;23.362;2023-04-25T04:13:49;6.47;;;4.47;;
10126;SDS011;13080;42.608;23.362;2023-04-25T04:16:16;5.35;;;4.72;;
10126;SDS011;13080;42.608;23.362;2023-04-25T04:18:44;4.70;;;3.80;;
10126;SDS011;13080;42.608;23.362;2023-04-25T04:21:11;5.03;;;4.22;;
10126;SDS011;13080;42.608;23.362;2023-04-25T04:23:38;10.02;;;7.63;;
10126;SDS011;13080;42.608;23.362;2023-04-25T04:26:05;11.88;;;7.38;;
10126;SDS011;13080;42.608;23.362;2023-04-25T04:28:32;9.55;;;6.60;;
10126;SDS011;13080;42.608;23.362;2023-04-25T04:31:00;10.38;;;7.13;;
10126;SDS011;13080;42.608;23.362;2023-04-25T04:33:27;10.07;;;7.13;;
10126;SDS011;13080;42.608;23.362;2023-04-25T04:35:54;12.43;;;7.38;;
10126;SDS011;13080;42.608;23.362;2023-04-25T04:38:21;14.07;;;9.93;;
10126;SDS011;13080;42.608;23.362;2023-04-25T04:40:49;15.15;;;8.52;;
10126;SDS011;13080;42.608;23.362;2023-04-25T04:43:15;13.93;;;7.55;;
10126;SDS011;13080;42.608;23.362;2023-04-25T04:45:43;9.68;;;7.10;;
10126;SDS011;13080;42.608;23.362;2023-04-25T04:48:11;12.57;;;7.43;;
10126;SDS011;13080;42.608;23.362;2023-04-25T04:50:39;13.52;;;8.57;;
10126;SDS011;13080;42.608;23.362;2023-04-25T04:53:06;11.88;;;7.75;;
10126;SDS011;13080;42.608;23.362;2023-04-25T04:55:33;13.90;;;8.10;;
10126;SDS011;13080;42.608;23.362;2023-04-25T04:57:59;14.40;;;8.73;;
10126;SDS011;13080;42.608;23.362;2023-04-25T05:00:28;14.93;;;8.73;;
10126;SDS011;13080;42.608;23.362;2023-04-25T05:02:55;13.13;;;8.30;;
10126;SDS011;13080;42.608;23.362;2023-04-25T05:05:24;10.32;;;6.43;;
10126;SDS011;13080;42.608;23.362;2023-04-25T05:07:50;10.27;;;6.70;;
10126;SDS011;13080;42.608;23.362;2023-04-25T05:10:18;15.73;;;7.93;;
10126;SDS011;13080;42.608;23.362;2023-04-25T05:12:45;11.95;;;7.93;;
10126;SDS011;13080;42.608;23.362;2023-04-25T05:15:12;14.27;;;9.73;;
10126;SDS011;13080;42.608;23.362;2023-04-25T05:17:39;19.02;;;11.98;;
10126;SDS011;13080;42.608;23.362;2023-04-25T05:20:06;19.25;;;12.15;;
10126;SDS011;13080;42.608;23.362;2023-04-25T05:22:35;19.67;;;12.63;;
10126;SDS011;13080;42.608;23.362;2023-04-25T05:25:02;20.15;;;12.52;;
10126;SDS011;13080;42.608;23.362;2023-04-25T05:27:29;20.55;;;12.77;;
10126;SDS011;13080;42.608;23.362;2023-04-25T05:29:56;18.85;;;11.20;;
10126;SDS011;13080;42.608;23.362;2023-04-25T05:32:24;19.13;;;10.95;;
10126;SDS011;13080;42.608;23.362;2023-04-25T05:34:54;19.92;;;11.68;;
10126;SDS011;13080;42.608;23.362;2023-04-25T05:37:21;17.45;;;11.05;;
10126;SDS011;13080;42.608;23.362;2023-04-25T05:39:49;19.67;;;11.15;;
10126;SDS011;13080;42.608;23.362;2023-04-25T05:42:15;16.27;;;11.30;;
10126;SDS011;13080;42.608;23.362;2023-04-25T05:44:42;17.83;;;11.20;;
10126;SDS011;13080;42.608;23.362;2023-04-25T05:47:09;20.52;;;12.95;;
10126;SDS011;13080;42.608;23.362;2023-04-25T05:49:35;22.45;;;13.48;;
10126;SDS011;13080;42.608;23.362;2023-04-25T05:52:02;22.65;;;13.85;;
10126;SDS011;13080;42.608;23.362;2023-04-25T05:54:29;21.90;;;13.05;;
10126;SDS011;13080;42.608;23.362;2023-04-25T05:56:57;24.20;;;14.15;;
10126;SDS011;13080;42.608;23.362;2023-04-25T05:59:24;23.30;;;15.07;;
10126;SDS011;13080;42.608;23.362;2023-04-25T06:01:50;23.98;;;13.95;;
10126;SDS011;13080;42.608;23.362;2023-04-25T06:04:17;22.40;;;14.30;;
10126;SDS011;13080;42.608;23.362;2023-04-25T06:06:44;20.83;;;11.93;;
10126;SDS011;13080;42.608;23.362;2023-04-25T06:09:11;17.25;;;11.90;;
10126;SDS011;13080;42.608;23.362;2023-04-25T06:11:37;19.02;;;12.45;;
10126;SDS011;13080;42.608;23.362;2023-04-25T06:14:06;22.10;;;13.68;;
10126;SDS011;13080;42.608;23.362;2023-04-25T06:16:33;22.75;;;13.38;;
10126;SDS011;13080;42.608;23.362;2023-04-25T06:18:59;23.20;;;13.43;;
10126;SDS011;13080;42.608;23.362;2023-04-25T06:21:26;20.10;;;13.55;;
10126;SDS011;13080;42.608;23.362;2023-04-25T06:23:53;21.35;;;12.85;;
10126;SDS011;13080;42.608;23.362;2023-04-25T06:26:20;18.05;;;11.73;;
10126;SDS011;13080;42.608;23.362;2023-04-25T06:28:47;22.65;;;12.70;;
10126;SDS011;13080;42.608;23.362;2023-04-25T06:31:15;21.48;;;13.07;;
10126;SDS011;13080;42.608;23.362;2023-04-25T06:33:41;21.13;;;11.82;;
10126;SDS011;13080;42.608;23.362;2023-04-25T06:36:08;15.70;;;10.05;;
10126;SDS011;13080;42.608;23.362;2023-04-25T06:38:35;15.90;;;9.93;;
10126;SDS011;13080;42.608;23.362;2023-04-25T06:41:04;15.20;;;10.52;;
10126;SDS011;13080;42.608;23.362;2023-04-25T06:43:31;11.93;;;9.10;;
10126;SDS011;13080;42.608;23.362;2023-04-25T06:45:58;15.57;;;10.32;;
10126;SDS011;13080;42.608;23.362;2023-04-25T06:48:27;14.80;;;9.73;;
10126;SDS011;13080;42.608;23.362;2023-04-25T06:50:54;14.60;;;9.60;;
10126;SDS011;13080;42.608;23.362;2023-04-25T06:53:21;13.57;;;8.45;;
10126;SDS011;13080;42.608;23.362;2023-04-25T06:55:48;11.93;;;9.07;;
10126;SDS011;13080;42.608;23.362;2023-04-25T06:58:15;8.20;;;6.32;;
10126;SDS011;13080;42.608;23.362;2023-04-25T07:00:41;8.35;;;5.63;;
10126;SDS011;13080;42.608;23.362;2023-04-25T07:03:08;10.18;;;6.32;;
10126;SDS011;13080;42.608;23.362;2023-04-25T07:05:37;6.78;;;4.80;;
10126;SDS011;13080;42.608;23.362;2023-04-25T07:08:03;10.48;;;6.97;;
10126;SDS011;13080;42.608;23.362;2023-04-25T07:10:30;9.15;;;4.38;;
10126;SDS011;13080;42.608;23.362;2023-04-25T07:12:57;8.52;;;5.25;;
10126;SDS011;13080;42.608;23.362;2023-04-25T07:15:24;8.25;;;5.68;;
10126;SDS011;13080;42.608;23.362;2023-04-25T07:17:50;10.88;;;5.55;;
10126;SDS011;13080;42.608;23.362;2023-04-25T07:20:17;9.00;;;5.50;;
10126;SDS011;13080;42.608;23.362;2023-04-25T07:22:45;10.73;;;5.80;;
10126;SDS011;13080;42.608;23.362;2023-04-25T07:25:12;8.63;;;5.20;;
10126;SDS011;13080;42.608;23.362;2023-04-25T07:27:39;10.88;;;5.80;;
10126;SDS011;13080;42.608;23.362;2023-04-25T07:30:06;9.30;;;6.05;;
10126;SDS011;13080;42.608;23.362;2023-04-25T07:32:34;10.95;;;6.60;;
10126;SDS011;13080;42.608;23.362;2023-04-25T07:35:01;9.00;;;5.78;;
10126;SDS011;13080;42.608;23.362;2023-04-25T07:37:28;8.65;;;6.32;;
10126;SDS011;13080;42.608;23.362;2023-04-25T07:39:56;7.88;;;5.90;;
10126;SDS011;13080;42.608;23.362;2023-04-25T07:42:23;11.65;;;8.00;;
10126;SDS011;13080;42.608;23.362;2023-04-25T07:44:50;12.25;;;7.70;;
10126;SDS011;13080;42.608;23.362;2023-04-25T07:47:16;9.77;;;6.65;;
10126;SDS011;13080;42.608;23.362;2023-04-25T07:49:45;10.30;;;7.05;;
10126;SDS011;13080;42.608;23.362;2023-04-25T07:52:11;10.73;;;7.32;;
10126;SDS011;13080;42.608;23.362;2023-04-25T07:54:38;8.48;;;6.35;;
10126;SDS011;13080;42.608;23.362;2023-04-25T07:57:06;10.50;;;6.90;;
10126;SDS011;13080;42.608;23.362;2023-04-25T07:59:33;11.75;;;7.07;;
10126;SDS011;13080;42.608;23.362;2023-04-25T08:02:00;9.43;;;6.32;;
10126;SDS011;13080;42.608;23.362;2023-04-25T08:04:29;8.98;;;6.28;;
10126;SDS011;13080;42.608;23.362;2023-04-25T08:06:55;7.47;;;5.45;;
10126;SDS011;13080;42.608;23.362;2023-04-25T08:09:22;8.38;;;5.70;;
10126;SDS011;13080;42.608;23.362;2023-04-25T08:11:49;11.45;;;6.10;;
10126;SDS011;13080;42.608;23.362;2023-04-25T08:14:17;9.43;;;5.63;;
10126;SDS011;13080;42.608;23.362;2023-04-25T08:16:44;9.25;;;6.20;;
10126;SDS011;13080;42.608;23.362;2023-04-25T08:19:11;7.93;;;6.00;;
10126;SDS011;13080;42.608;23.362;2023-04-25T08:21:38;12.15;;;5.82;;
10126;SDS011;13080;42.608;23.362;2023-04-25T08:24:05;6.93;;;4.88;;
10126;SDS011;13080;42.608;23.362;2023-04-25T08:26:32;8.43;;;5.22;;
10126;SDS011;13080;42.608;23.362;2023-04-25T08:28:59;6.15;;;4.85;;
10126;SDS011;13080;42.608;23.362;2023-04-25T08:31:27;7.65;;;5.22;;
10126;SDS011;13080;42.608;23.362;2023-04-25T08:33:54;5.70;;;4.32;;
10126;SDS011;13080;42.608;23.362;2023-04-25T08:36:21;6.10;;;3.63;;
10126;SDS011;13080;42.608;23.362;2023-04-25T08:38:48;5.68;;;2.97;;
10126;SDS011;13080;42.608;23.362;2023-04-25T08:41:14;3.25;;;2.58;;
10126;SDS011;13080;42.608;23.362;2023-04-25T08:43:42;11.70;;;2.95;;
10126;SDS011;13080;42.608;23.362;2023-04-25T08:46:10;4.75;;;2.85;;
10126;SDS011;13080;42.608;23.362;2023-04-25T08:48:40;7.40;;;3.28;;
10126;SDS011;13080;42.608;23.362;2023-04-25T08:51:08;5.15;;;3.15;;
10126;SDS011;13080;42.608;23.362;2023-04-25T08:53:41;4.28;;;3.03;;
10126;SDS011;13080;42.608;23.362;2023-04-25T08:56:09;4.57;;;2.58;;
10126;SDS011;13080;42.608;23.362;2023-04-25T08:58:39;3.50;;;2.20;;
10126;SDS011;13080;42.608;23.362;2023-04-25T09:01:06;5.20;;;1.63;;
10126;SDS011;13080;42.608;23.362;2023-04-25T09:03:34;2.25;;;1.33;;
10126;SDS011;13080;42.608;23.362;2023-04-25T09:06:03;5.65;;;2.40;;
10126;SDS011;13080;42.608;23.362;2023-04-25T09:08:30;2.47;;;2.00;;
10126;SDS011;13080;42.608;23.362;2023-04-25T09:10:57;2.40;;;1.98;;
10126;SDS011;13080;42.608;23.362;2023-04-25T09:13:24;5.38;;;2.40;;
10126;SDS011;13080;42.608;23.362;2023-04-25T09:15:53;3.45;;;2.33;;
10126;SDS011;13080;42.608;23.362;2023-04-25T09:18:23;7.07;;;2.00;;
10126;SDS011;13080;42.608;23.362;2023-04-25T09:20:51;3.03;;;2.13;;
10126;SDS011;13080;42.608;23.362;2023-04-25T09:23:20;5.40;;;2.00;;
10126;SDS011;13080;42.608;23.362;2023-04-25T09:25:48;8.20;;;2.92;;
10126;SDS011;13080;42.608;23.362;2023-04-25T09:28:16;4.50;;;3.10;;
10126;SDS011;13080;42.608;23.362;2023-04-25T09:30:53;8.02;;;4.00;;
10126;SDS011;13080;42.608;23.362;2023-04-25T09:33:23;5.40;;;3.47;;
10126;SDS011;13080;42.608;23.362;2023-04-25T09:35:54;5.80;;;3.83;;
10126;SDS011;13080;42.608;23.362;2023-04-25T09:38:28;5.95;;;3.53;;
10126;SDS011;13080;42.608;23.362;2023-04-25T09:40:57;5.78;;;4.00;;
10126;SDS011;13080;42.608;23.362;2023-04-25T09:43:24;5.20;;;3.95;;
10126;SDS011;13080;42.608;23.362;2023-04-25T09:45:52;9.25;;;4.72;;
10126;SDS011;13080;42.608;23.362;2023-04-25T09:48:22;6.55;;;4.25;;
10126;SDS011;13080;42.608;23.362;2023-04-25T09:51:03;4.43;;;3.40;;
10126;SDS011;13080;42.608;23.362;2023-04-25T09:53:32;4.72;;;2.80;;
10126;SDS011;13080;42.608;23.362;2023-04-25T09:55:59;3.40;;;2.65;;
10126;SDS011;13080;42.608;23.362;2023-04-25T09:58:27;3.63;;;2.30;;
10126;SDS011;13080;42.608;23.362;2023-04-25T10:00:56;3.38;;;2.65;;
10126;SDS011;13080;42.608;23.362;2023-04-25T10:03:25;3.67;;;2.78;;
10126;SDS011;13080;42.608;23.362;2023-04-25T10:05:52;3.63;;;2.50;;
10126;SDS011;13080;42.608;23.362;2023-04-25T10:08:19;3.13;;;2.63;;
10126;SDS011;13080;42.608;23.362;2023-04-25T10:10:50;4.20;;;2.53;;
10126;SDS011;13080;42.608;23.362;2023-04-25T10:13:16;5.35;;;2.72;;
10126;SDS011;13080;42.608;23.362;2023-04-25T10:15:43;3.08;;;2.65;;
10126;SDS011;13080;42.608;23.362;2023-04-25T10:18:11;2.38;;;2.00;;
10126;SDS011;13080;42.608;23.362;2023-04-25T10:20:38;2.25;;;1.45;;
10126;SDS011;13080;42.608;23.362;2023-04-25T10:23:06;3.17;;;1.40;;
10126;SDS011;13080;42.608;23.362;2023-04-25T10:25:38;1.15;;;0.90;;
10126;SDS011;13080;42.608;23.362;2023-04-25T10:28:06;1.65;;;0.70;;
10126;SDS011;13080;42.608;23.362;2023-04-25T10:30:33;1.25;;;0.65;;
10126;SDS011;13080;42.608;23.362;2023-04-25T10:33:00;0.77;;;0.50;;
10126;SDS011;13080;42.608;23.362;2023-04-25T10:35:27;0.80;;;0.40;;
10126;SDS011;13080;42.608;23.362;2023-04-25T10:38:05;2.00;;;0.57;;
10126;SDS011;13080;42.608;23.362;2023-04-25T10:40:35;10.68;;;3.92;;
10126;SDS011;13080;42.608;23.362;2023-04-25T10:46:02;1.50;;;0.70;;
10126;SDS011;13080;42.608;23.362;2023-04-25T10:48:38;3.72;;;0.63;;
10126;SDS011;13080;42.608;23.362;2023-04-25T10:51:12;1.60;;;0.50;;
10126;SDS011;13080;42.608;23.362;2023-04-25T10:53:43;0.82;;;0.60;;
10126;SDS011;13080;42.608;23.362;2023-04-25T10:56:10;0.90;;;0.55;;
10126;SDS011;13080;42.608;23.362;2023-04-25T10:58:43;1.15;;;0.55;;
10126;SDS011;13080;42.608;23.362;2023-04-25T11:01:10;1.83;;;0.68;;
10126;SDS011;13080;42.608;23.362;2023-04-25T11:03:40;6.22;;;3.85;;
10126;SDS011;13080;42.608;23.362;2023-04-25T11:06:09;0.98;;;0.63;;
10126;SDS011;13080;42.608;23.362;2023-04-25T11:08:47;1.02;;;0.80;;
10126;SDS011;13080;42.608;23.362;2023-04-25T11:11:15;2.53;;;1.98;;
10126;SDS011;13080;42.608;23.362;2023-04-25T11:13:44;2.60;;;1.30;;
10126;SDS011;13080;42.608;23.362;2023-04-25T11:16:13;49.20;;;19.23;;
10126;SDS011;13080;42.608;23.362;2023-04-25T11:18:40;4.80;;;2.60;;
10126;SDS011;13080;42.608;23.362;2023-04-25T11:21:07;1.35;;;0.95;;
10126;SDS011;13080;42.608;23.362;2023-04-25T11:23:34;0.63;;;0.38;;
10126;SDS011;13080;42.608;23.362;2023-04-25T11:26:01;0.68;;;0.50;;
10126;SDS011;13080;42.608;23.362;2023-04-25T11:28:28;1.02;;;0.30;;
10126;SDS011;13080;42.608;23.362;2023-04-25T11:30:57;1.20;;;0.28;;
10126;SDS011;13080;42.608;23.362;2023-04-25T11:33:24;1.13;;;0.30;;
10126;SDS011;13080;42.608;23.362;2023-04-25T11:35:52;0.20;;;0.10;;
10126;SDS011;13080;42.608;23.362;2023-04-25T11:38:20;0.57;;;0.57;;
10126;SDS011;13080;42.608;23.362;2023-04-25T11:40:49;4.60;;;1.20;;
10126;SDS011;13080;42.608;23.362;2023-04-25T11:43:17;2.95;;;1.23;;
10126;SDS011;13080;42.608;23.362;2023-04-25T11:45:46;3.60;;;1.20;;
10126;SDS011;13080;42.608;23.362;2023-04-25T11:48:15;3.15;;;1.10;;
10126;SDS011;13080;42.608;23.362;2023-04-25T11:50:42;2.25;;;1.48;;
10126;SDS011;13080;42.608;23.362;2023-04-25T11:53:08;1.48;;;1.17;;
10126;SDS011;13080;42.608;23.362;2023-04-25T11:55:35;2.88;;;1.40;;
10126;SDS011;13080;42.608;23.362;2023-04-25T11:58:03;2.03;;;1.80;;
10126;SDS011;13080;42.608;23.362;2023-04-25T12:00:31;3.08;;;1.52;;
10126;SDS011;13080;42.608;23.362;2023-04-25T12:02:57;2.17;;;1.13;;
10126;SDS011;13080;42.608;23.362;2023-04-25T12:05:26;1.83;;;1.25;;
10126;SDS011;13080;42.608;23.362;2023-04-25T12:07:55;2.72;;;1.10;;
10126;SDS011;13080;42.608;23.362;2023-04-25T12:10:23;4.57;;;2.05;;
10126;SDS011;13080;42.608;23.362;2023-04-25T12:12:51;3.55;;;2.38;;
10126;SDS011;13080;42.608;23.362;2023-04-25T12:15:22;2.85;;;1.50;;
10126;SDS011;13080;42.608;23.362;2023-04-25T12:17:51;1.40;;;0.70;;
10126;SDS011;13080;42.608;23.362;2023-04-25T12:20:19;1.88;;;0.70;;
10126;SDS011;13080;42.608;23.362;2023-04-25T12:22:50;1.13;;;0.77;;
10126;SDS011;13080;42.608;23.362;2023-04-25T12:28:10;2.08;;;0.55;;
10126;SDS011;13080;42.608;23.362;2023-04-25T12:30:51;1.88;;;1.15;;
10126;SDS011;13080;42.608;23.362;2023-04-25T12:33:20;3.83;;;1.23;;
10126;SDS011;13080;42.608;23.362;2023-04-25T12:35:46;7.07;;;2.20;;
10126;SDS011;13080;42.608;23.362;2023-04-25T12:38:21;1.35;;;0.60;;
10126;SDS011;13080;42.608;23.362;2023-04-25T12:40:48;4.30;;;0.63;;
10126;SDS011;13080;42.608;23.362;2023-04-25T12:43:15;1.52;;;1.00;;
10126;SDS011;13080;42.608;23.362;2023-04-25T12:45:42;2.13;;;0.90;;
10126;SDS011;13080;42.608;23.362;2023-04-25T12:48:08;1.10;;;0.70;;
10126;SDS011;13080;42.608;23.362;2023-04-25T12:50:36;1.30;;;0.63;;
10126;SDS011;13080;42.608;23.362;2023-04-25T12:53:02;1.75;;;0.70;;
10126;SDS011;13080;42.608;23.362;2023-04-25T12:55:30;1.10;;;0.70;;
10126;SDS011;13080;42.608;23.362;2023-04-25T12:57:57;1.48;;;0.60;;
10126;SDS011;13080;42.608;23.362;2023-04-25T13:00:24;0.50;;;0.40;;
10126;SDS011;13080;42.608;23.362;2023-04-25T13:02:51;0.75;;;0.40;;
10126;SDS011;13080;42.608;23.362;2023-04-25T13:05:18;1.33;;;0.70;;
10126;SDS011;13080;42.608;23.362;2023-04-25T13:07:45;2.38;;;0.70;;
10126;SDS011;13080;42.608;23.362;2023-04-25T13:10:11;1.02;;;0.50;;
10126;SDS011;13080;42.608;23.362;2023-04-25T13:12:39;3.40;;;0.75;;
10126;SDS011;13080;42.608;23.362;2023-04-25T13:15:07;1.42;;;0.70;;
10126;SDS011;13080;42.608;23.362;2023-04-25T13:17:36;2.15;;;0.70;;
10126;SDS011;13080;42.608;23.362;2023-04-25T13:20:21;5.10;;;0.90;;
10126;SDS011;13080;42.608;23.362;2023-04-25T13:22:48;2.00;;;0.70;;
10126;SDS011;13080;42.608;23.362;2023-04-25T13:25:15;1.52;;;0.70;;
10126;SDS011;13080;42.608;23.362;2023-04-25T13:27:43;2.05;;;0.90;;
10126;SDS011;13080;42.608;23.362;2023-04-25T13:30:11;3.58;;;1.27;;
10126;SDS011;13080;42.608;23.362;2023-04-25T13:32:39;1.58;;;0.93;;
10126;SDS011;13080;42.608;23.362;2023-04-25T13:35:06;1.10;;;0.75;;
10126;SDS011;13080;42.608;23.362;2023-04-25T13:37:35;1.20;;;0.90;;
10126;SDS011;13080;42.608;23.362;2023-04-25T13:40:02;1.40;;;1.10;;
10126;SDS011;13080;42.608;23.362;2023-04-25T13:42:34;1.15;;;0.73;;
10126;SDS011;13080;42.608;23.362;2023-04-25T13:45:02;1.55;;;0.90;;
10126;SDS011;13080;42.608;23.362;2023-04-25T13:47:30;2.75;;;1.05;;
10126;SDS011;13080;42.608;23.362;2023-04-25T13:49:56;3.22;;;1.20;;
10126;SDS011;13080;42.608;23.362;2023-04-25T13:52:23;3.28;;;1.23;;
10126;SDS011;13080;42.608;23.362;2023-04-25T13:54:50;2.75;;;1.08;;
10126;SDS011;13080;42.608;23.362;2023-04-25T13:57:17;4.05;;;0.90;;
10126;SDS011;13080;42.608;23.362;2023-04-25T13:59:45;3.05;;;1.50;;
10126;SDS011;13080;42.608;23.362;2023-04-25T14:02:13;1.50;;;1.27;;
10126;SDS011;13080;42.608;23.362;2023-04-25T14:04:40;3.83;;;2.10;;
10126;SDS011;13080;42.608;23.362;2023-04-25T14:07:07;1.27;;;1.10;;
10126;SDS011;13080;42.608;23.362;2023-04-25T14:09:33;4.32;;;1.15;;
10126;SDS011;13080;42.608;23.362;2023-04-25T14:12:00;4.07;;;0.50;;
10126;SDS011;13080;42.608;23.362;2023-04-25T14:14:27;0.90;;;0.60;;
10126;SDS011;13080;42.608;23.362;2023-04-25T14:16:54;20.70;;;7.13;;
10126;SDS011;13080;42.608;23.362;2023-04-25T14:19:23;5.22;;;1.45;;
10126;SDS011;13080;42.608;23.362;2023-04-25T14:21:50;2.35;;;1.15;;
10126;SDS011;13080;42.608;23.362;2023-04-25T14:24:17;9.00;;;3.05;;
10126;SDS011;13080;42.608;23.362;2023-04-25T14:26:43;4.68;;;2.33;;
10126;SDS011;13080;42.608;23.362;2023-04-25T14:29:10;1.52;;;1.00;;
10126;SDS011;13080;42.608;23.362;2023-04-25T14:31:37;2.83;;;0.95;;
10126;SDS011;13080;42.608;23.362;2023-04-25T14:34:05;1.77;;;1.20;;
10126;SDS011;13080;42.608;23.362;2023-04-25T14:36:35;1.38;;;1.20;;